PWSweather.com
Personal Weather Stations
Station Observations
133525
West Seneca Near Buffalo Airpark, West Seneca, NY 14224

West Seneca Near Buffalo AirparkWest Seneca, NY 14224

Lat: 42.850058, Lon: -78.799754

Elevation: 603

Station Type: Davis Vantage Vue pro2

http://westsenecaweather.com/

Latest ConditionsUpdated 8:40:01 PM EST Tuesday, Feb 21, 2017
Currently Today's Max Today's Min Today's Average
Temperature 44.4°F6.9°C 60.0°F15.6°C 29.7°F-1.3°C 43.4°F6.3°C
Dew Point 41.4°F5.2°C 42.2°F5.7°C 21.1°F-6.1°C 30.9°F-0.6°C
Winds 1.2 mph S1.9 kmh S 9.2 mph S14.8 kmh S - 2.3 mph 3.7 kmh
Wind Gusts 2.3 mph3.7 kmh 12.7 mph20.4 kmh - -
Humidity 89% 89% 39% 64%
Pressure 29.96 in1014.6 mb 30.23 in1023.7 mb 29.92 in1013.2 mb -
Precipitation - 0.05 in1.3 mm - -
Hour Temp Dew Point Humidity Winds Wind Gusts Pressure Precip Precip Rate Daily Precip Total
08:40 PM 44.4°F6.9°C 41.4°F5.2°C 89% 1.2 mph S1.9 kmh S 2.3 mph3.7 kmh 29.96 in1014.6 mb - 0.00 in0.0 mm 0.05 in1.3 mm
08:30 PM 44.3°F6.8°C 41.3°F5.2°C 89% 1.2 mph S1.9 kmh S 1.2 mph1.9 kmh 29.95 in1014.2 mb - 0.00 in0.0 mm 0.05 in1.3 mm
08:20 PM 44.3°F6.8°C 41.3°F5.2°C 89% Calm Calm -- 29.96 in1014.6 mb - 0.00 in0.0 mm 0.05 in1.3 mm
08:10 PM 44.3°F6.8°C 41.3°F5.2°C 89% Calm Calm -- 29.95 in1014.2 mb - 0.00 in0.0 mm 0.05 in1.3 mm
08:00 PM 44.3°F6.8°C 41.3°F5.2°C 89% 1.2 mph S1.9 kmh S 3.5 mph5.6 kmh 29.95 in1014.2 mb - 0.00 in0.0 mm 0.05 in1.3 mm
07:50 PM 44.4°F6.9°C 41.4°F5.2°C 89% Calm Calm 1.2 mph1.9 kmh 29.96 in1014.6 mb - 0.00 in0.0 mm 0.05 in1.3 mm
07:40 PM 44.4°F6.9°C 41.1°F5.1°C 88% Calm Calm -- 29.95 in1014.2 mb - 0.00 in0.0 mm 0.05 in1.3 mm
07:30 PM 44.4°F6.9°C 41.4°F5.2°C 89% 1.2 mph S1.9 kmh S 2.3 mph3.7 kmh 29.95 in1014.2 mb - 0.00 in0.0 mm 0.05 in1.3 mm
07:20 PM 44.4°F6.9°C 41.4°F5.2°C 89% 1.2 mph S1.9 kmh S 2.3 mph3.7 kmh 29.95 in1014.2 mb - 0.00 in0.0 mm 0.05 in1.3 mm
07:10 PM 44.2°F6.8°C 41.2°F5.1°C 89% 1.2 mph SSW1.9 kmh SSW 2.3 mph3.7 kmh 29.95 in1014.2 mb - 0.00 in0.0 mm 0.05 in1.3 mm
07:00 PM 44.1°F6.7°C 41.1°F5.1°C 89% Calm Calm -- 29.95 in1014.2 mb - 0.00 in0.0 mm 0.05 in1.3 mm
06:50 PM 44.0°F6.7°C 40.7°F4.8°C 88% Calm Calm -- 29.96 in1014.6 mb - 0.00 in0.0 mm 0.05 in1.3 mm
06:40 PM 44.0°F6.7°C 40.6°F4.8°C 88% Calm Calm -- 29.96 in1014.6 mb - 0.00 in0.0 mm 0.05 in1.3 mm
06:30 PM 43.9°F6.6°C 40.6°F4.8°C 88% Calm Calm -- 29.96 in1014.6 mb - 0.00 in0.0 mm 0.05 in1.3 mm
06:20 PM 43.9°F6.6°C 40.6°F4.8°C 88% Calm Calm 1.2 mph1.9 kmh 29.96 in1014.6 mb - 0.00 in0.0 mm 0.05 in1.3 mm
06:00 PM 44.3°F6.8°C 40.4°F4.7°C 86% Calm Calm -- 29.94 in1013.9 mb - 0.00 in0.0 mm 0.05 in1.3 mm
05:50 PM 44.8°F7.1°C 40.6°F4.8°C 85% 1.2 mph SSW1.9 kmh SSW 2.3 mph3.7 kmh 29.94 in1013.9 mb - 0.00 in0.0 mm 0.05 in1.3 mm
05:40 PM 45.2°F7.3°C 40.7°F4.8°C 84% Calm Calm 1.2 mph1.9 kmh 29.95 in1014.2 mb - 0.00 in0.0 mm 0.05 in1.3 mm
05:30 PM 45.8°F7.7°C 40.0°F4.4°C 80% 1.2 mph SW1.9 kmh SW 2.3 mph3.7 kmh 29.95 in1014.2 mb - 0.01 in0.3 mm 0.05 in1.3 mm
05:20 PM 47.3°F8.5°C 39.8°F4.3°C 75% 3.5 mph WSW5.6 kmh WSW 5.8 mph9.3 kmh 29.95 in1014.2 mb - 0.00 in0.0 mm 0.04 in1.0 mm
05:10 PM 50.8°F10.4°C 41.0°F5.0°C 69% 3.5 mph WSW5.6 kmh WSW 5.8 mph9.3 kmh 29.95 in1014.2 mb - 0.01 in0.3 mm 0.04 in1.0 mm
05:00 PM 53.7°F12.1°C 42.2°F5.7°C 65% 4.6 mph N7.4 kmh N 5.8 mph9.3 kmh 29.95 in1014.2 mb - 0.01 in0.3 mm 0.03 in0.8 mm
04:50 PM 55.4°F13.0°C 40.9°F4.9°C 58% 2.3 mph NW3.7 kmh NW 3.5 mph5.6 kmh 29.94 in1013.9 mb - 0.02 in0.5 mm 0.02 in0.5 mm
04:40 PM 57.2°F14.0°C 39.2°F4.0°C 51% 2.3 mph E3.7 kmh E 3.5 mph5.6 kmh 29.94 in1013.9 mb - 0.00 in0.0 mm 0.00 in0.0 mm
04:30 PM 57.9°F14.4°C 36.7°F2.6°C 45% 4.6 mph S7.4 kmh S 6.9 mph11.1 kmh 29.94 in1013.9 mb - 0.00 in0.0 mm 0.00 in0.0 mm
04:20 PM 58.2°F14.6°C 36.4°F2.4°C 44% 3.5 mph S5.6 kmh S 5.8 mph9.3 kmh 29.93 in1013.5 mb - 0.00 in0.0 mm 0.00 in0.0 mm
04:10 PM 58.5°F14.7°C 36.0°F2.2°C 43% 4.6 mph SSE7.4 kmh SSE 5.8 mph9.3 kmh 29.93 in1013.5 mb - 0.00 in0.0 mm 0.00 in0.0 mm
04:00 PM 58.8°F14.9°C 35.7°F2.1°C 42% 6.9 mph SSW11.1 kmh SSW 11.5 mph18.5 kmh 29.93 in1013.5 mb - 0.00 in0.0 mm 0.00 in0.0 mm
03:50 PM 59.0°F15.0°C 36.5°F2.5°C 43% 3.5 mph SSW5.6 kmh SSW 5.8 mph9.3 kmh 29.94 in1013.9 mb - 0.00 in0.0 mm 0.00 in0.0 mm
03:40 PM 59.0°F15.0°C 36.5°F2.5°C 43% 5.8 mph SSW9.3 kmh SSW 12.7 mph20.4 kmh 29.94 in1013.9 mb - 0.00 in0.0 mm 0.00 in0.0 mm
03:30 PM 59.0°F15.0°C 36.5°F2.5°C 43% 2.3 mph S3.7 kmh S 6.9 mph11.1 kmh 29.93 in1013.5 mb - 0.00 in0.0 mm 0.00 in0.0 mm
03:20 PM 59.1°F15.1°C 36.0°F2.2°C 42% 6.9 mph SSE11.1 kmh SSE 10.4 mph16.7 kmh 29.92 in1013.2 mb - 0.00 in0.0 mm 0.00 in0.0 mm
03:10 PM 59.4°F15.2°C 36.3°F2.4°C 42% 4.6 mph S7.4 kmh S 5.8 mph9.3 kmh 29.92 in1013.2 mb - 0.00 in0.0 mm 0.00 in0.0 mm
03:00 PM 59.6°F15.3°C 35.9°F2.2°C 41% 6.9 mph SSE11.1 kmh SSE 10.4 mph16.7 kmh 29.92 in1013.2 mb - 0.00 in0.0 mm 0.00 in0.0 mm
02:50 PM 59.9°F15.5°C 36.1°F2.3°C 41% 6.9 mph S11.1 kmh S 10.4 mph16.7 kmh 29.93 in1013.5 mb - 0.00 in0.0 mm 0.00 in0.0 mm
02:40 PM 59.8°F15.4°C 36.6°F2.6°C 42% 3.5 mph SE5.6 kmh SE 6.9 mph11.1 kmh 29.92 in1013.2 mb - 0.00 in0.0 mm 0.00 in0.0 mm
02:30 PM 59.9°F15.5°C 36.1°F2.3°C 41% 5.8 mph S9.3 kmh S 6.9 mph11.1 kmh 29.93 in1013.5 mb - 0.00 in0.0 mm 0.00 in0.0 mm
02:20 PM 60.0°F15.6°C 36.2°F2.3°C 41% 4.6 mph S7.4 kmh S 8.1 mph13.0 kmh 29.94 in1013.9 mb - 0.00 in0.0 mm 0.00 in0.0 mm
02:10 PM 59.9°F15.5°C 36.1°F2.3°C 41% 5.8 mph S9.3 kmh S 9.2 mph14.8 kmh 29.94 in1013.9 mb - 0.00 in0.0 mm 0.00 in0.0 mm
02:00 PM 59.7°F15.4°C 36.5°F2.5°C 42% 4.6 mph SSW7.4 kmh SSW 8.1 mph13.0 kmh 29.94 in1013.9 mb - 0.00 in0.0 mm 0.00 in0.0 mm
01:50 PM 59.2°F15.1°C 35.5°F1.9°C 41% 5.8 mph S9.3 kmh S 6.9 mph11.1 kmh 29.95 in1014.2 mb - 0.00 in0.0 mm 0.00 in0.0 mm
01:40 PM 59.0°F15.0°C 35.3°F1.8°C 41% 3.5 mph SSE5.6 kmh SSE 4.6 mph7.4 kmh 29.96 in1014.6 mb - 0.00 in0.0 mm 0.00 in0.0 mm
01:30 PM 58.9°F14.9°C 35.2°F1.8°C 41% 6.9 mph S11.1 kmh S 10.4 mph16.7 kmh 29.96 in1014.6 mb - 0.00 in0.0 mm 0.00 in0.0 mm
01:20 PM 58.6°F14.8°C 35.0°F1.7°C 41% 5.8 mph S9.3 kmh S 8.1 mph13.0 kmh 29.96 in1014.6 mb - 0.00 in0.0 mm 0.00 in0.0 mm
01:10 PM 58.4°F14.7°C 34.8°F1.6°C 41% 6.9 mph SSE11.1 kmh SSE 11.5 mph18.5 kmh 29.96 in1014.6 mb - 0.00 in0.0 mm 0.00 in0.0 mm
01:00 PM 58.0°F14.4°C 35.0°F1.7°C 42% 3.5 mph S5.6 kmh S 3.5 mph5.6 kmh 29.96 in1014.6 mb - 0.00 in0.0 mm 0.00 in0.0 mm
12:50 PM 57.4°F14.1°C 33.9°F1.1°C 41% 4.6 mph SSE7.4 kmh SSE 8.1 mph13.0 kmh 29.96 in1014.6 mb - 0.00 in0.0 mm 0.00 in0.0 mm
12:40 PM 57.2°F14.0°C 33.7°F0.9°C 41% 5.8 mph S9.3 kmh S 8.1 mph13.0 kmh 29.96 in1014.6 mb - 0.00 in0.0 mm 0.00 in0.0 mm
12:30 PM 56.9°F13.8°C 33.4°F0.8°C 41% 5.8 mph SSE9.3 kmh SSE 6.9 mph11.1 kmh 29.97 in1014.9 mb - 0.00 in0.0 mm 0.00 in0.0 mm
12:20 PM 56.4°F13.6°C 32.3°F0.2°C 40% 6.9 mph S11.1 kmh S 8.1 mph13.0 kmh 29.98 in1015.2 mb - 0.00 in0.0 mm 0.00 in0.0 mm
12:10 PM 55.9°F13.3°C 31.9°F-0.1°C 40% 5.8 mph S9.3 kmh S 6.9 mph11.1 kmh 29.99 in1015.6 mb - 0.00 in0.0 mm 0.00 in0.0 mm
12:00 PM 55.6°F13.1°C 31.6°F-0.2°C 40% 4.6 mph SSE7.4 kmh SSE 6.9 mph11.1 kmh 30.00 in1015.9 mb - 0.00 in0.0 mm 0.00 in0.0 mm
11:50 AM 55.5°F13.1°C 30.9°F-0.6°C 39% 5.8 mph S9.3 kmh S 9.2 mph14.8 kmh 30.00 in1015.9 mb - 0.00 in0.0 mm 0.00 in0.0 mm
11:40 AM 55.0°F12.8°C 31.1°F-0.5°C 40% 4.6 mph S7.4 kmh S 12.7 mph20.4 kmh 30.00 in1015.9 mb - 0.00 in0.0 mm 0.00 in0.0 mm
11:30 AM 54.9°F12.7°C 30.4°F-0.9°C 39% 9.2 mph S14.8 kmh S 12.7 mph20.4 kmh 30.01 in1016.3 mb - 0.00 in0.0 mm 0.00 in0.0 mm
11:20 AM 54.5°F12.5°C 30.0°F-1.1°C 39% 8.1 mph S13.0 kmh S 11.5 mph18.5 kmh 30.02 in1016.6 mb - 0.00 in0.0 mm 0.00 in0.0 mm
11:10 AM 54.2°F12.3°C 30.4°F-0.9°C 40% 5.8 mph S9.3 kmh S 5.8 mph9.3 kmh 30.02 in1016.6 mb - 0.00 in0.0 mm 0.00 in0.0 mm
11:00 AM 54.1°F12.3°C 30.9°F-0.6°C 41% 4.6 mph S7.4 kmh S 8.1 mph13.0 kmh 30.03 in1016.9 mb - 0.00 in0.0 mm 0.00 in0.0 mm
10:50 AM 53.9°F12.2°C 30.1°F-1.1°C 40% 8.1 mph S13.0 kmh S 12.7 mph20.4 kmh 30.03 in1016.9 mb - 0.00 in0.0 mm 0.00 in0.0 mm
10:40 AM 53.1°F11.7°C 30.6°F-0.8°C 42% 3.5 mph S5.6 kmh S 9.2 mph14.8 kmh 30.03 in1016.9 mb - 0.00 in0.0 mm 0.00 in0.0 mm
10:30 AM 52.4°F11.3°C 30.0°F-1.1°C 42% 3.5 mph S5.6 kmh S 4.6 mph7.4 kmh 30.03 in1016.9 mb - 0.00 in0.0 mm 0.00 in0.0 mm
10:20 AM 51.7°F10.9°C 29.9°F-1.2°C 43% 3.5 mph S5.6 kmh S 5.8 mph9.3 kmh 30.03 in1016.9 mb - 0.00 in0.0 mm 0.00 in0.0 mm
10:10 AM 50.5°F10.3°C 29.4°F-1.4°C 44% 3.5 mph SSE5.6 kmh SSE 6.9 mph11.1 kmh 30.03 in1016.9 mb - 0.00 in0.0 mm 0.00 in0.0 mm
10:00 AM 48.5°F9.2°C 31.2°F-0.4°C 51% Calm Calm 2.3 mph3.7 kmh 30.04 in1017.3 mb - 0.00 in0.0 mm 0.00 in0.0 mm
09:50 AM 47.0°F8.3°C 30.8°F-0.7°C 53% Calm Calm 1.2 mph1.9 kmh 30.04 in1017.3 mb - 0.00 in0.0 mm 0.00 in0.0 mm
09:40 AM 46.1°F7.8°C 30.4°F-0.9°C 54% 1.2 mph NE1.9 kmh NE 2.3 mph3.7 kmh 30.05 in1017.6 mb - 0.00 in0.0 mm 0.00 in0.0 mm
09:30 AM 45.0°F7.2°C 29.4°F-1.4°C 54% Calm Calm -- 30.05 in1017.6 mb - 0.00 in0.0 mm 0.00 in0.0 mm
09:20 AM 44.2°F6.8°C 29.5°F-1.4°C 56% Calm Calm -- 30.05 in1017.6 mb - 0.00 in0.0 mm 0.00 in0.0 mm
09:10 AM 42.9°F6.1°C 29.6°F-1.3°C 59% 1.2 mph NE1.9 kmh NE 2.3 mph3.7 kmh 30.05 in1017.6 mb - 0.00 in0.0 mm 0.00 in0.0 mm
09:00 AM 41.1°F5.1°C 29.4°F-1.4°C 63% 1.2 mph N1.9 kmh N 2.3 mph3.7 kmh 30.05 in1017.6 mb - 0.00 in0.0 mm 0.00 in0.0 mm
08:50 AM 39.4°F4.1°C 30.0°F-1.1°C 69% Calm Calm 2.3 mph3.7 kmh 30.06 in1017.9 mb - 0.00 in0.0 mm 0.00 in0.0 mm
08:40 AM 38.3°F3.5°C 29.8°F-1.2°C 71% Calm Calm -- 30.07 in1018.3 mb - 0.00 in0.0 mm 0.00 in0.0 mm
08:30 AM 37.3°F2.9°C 29.1°F-1.6°C 72% Calm Calm -- 30.07 in1018.3 mb - 0.00 in0.0 mm 0.00 in0.0 mm
08:20 AM 36.2°F2.3°C 28.3°F-2.1°C 73% Calm Calm -- 30.07 in1018.3 mb - 0.00 in0.0 mm 0.00 in0.0 mm
08:10 AM 34.4°F1.3°C 28.2°F-2.1°C 78% Calm Calm 1.2 mph1.9 kmh 30.06 in1017.9 mb - 0.00 in0.0 mm 0.00 in0.0 mm
08:00 AM 33.6°F0.9°C 27.8°F-2.3°C 79% Calm Calm -- 30.07 in1018.3 mb - 0.00 in0.0 mm 0.00 in0.0 mm
07:50 AM 33.2°F0.7°C 27.1°F-2.7°C 78% Calm Calm 1.2 mph1.9 kmh 30.08 in1018.6 mb - 0.00 in0.0 mm 0.00 in0.0 mm
07:40 AM 33.1°F0.6°C 27.0°F-2.8°C 78% Calm Calm -- 30.08 in1018.6 mb - 0.00 in0.0 mm 0.00 in0.0 mm
07:30 AM 33.1°F0.6°C 27.0°F-2.8°C 78% Calm Calm 1.2 mph1.9 kmh 30.09 in1019.0 mb - 0.00 in0.0 mm 0.00 in0.0 mm
07:20 AM 32.9°F0.5°C 26.8°F-2.9°C 78% Calm Calm -- 30.08 in1018.6 mb - 0.00 in0.0 mm 0.00 in0.0 mm
07:10 AM 32.4°F0.2°C 26.6°F-3.0°C 79% Calm Calm 2.3 mph3.7 kmh 30.07 in1018.3 mb - 0.00 in0.0 mm 0.00 in0.0 mm
07:00 AM 32.3°F0.2°C 26.5°F-3.1°C 79% Calm Calm -- 30.07 in1018.3 mb - 0.00 in0.0 mm 0.00 in0.0 mm
06:50 AM 32.2°F0.1°C 26.4°F-3.1°C 79% Calm Calm -- 30.08 in1018.6 mb - 0.00 in0.0 mm 0.00 in0.0 mm
06:40 AM 32.0°F0.0°C 26.5°F-3.1°C 80% Calm Calm -- 30.08 in1018.6 mb - 0.00 in0.0 mm 0.00 in0.0 mm
06:30 AM 31.9°F-0.1°C 26.4°F-3.1°C 80% 1.2 mph NNE1.9 kmh NNE 1.2 mph1.9 kmh 30.09 in1019.0 mb - 0.00 in0.0 mm 0.00 in0.0 mm
06:20 AM 32.0°F0.0°C 26.2°F-3.2°C 79% 1.2 mph NNE1.9 kmh NNE 1.2 mph1.9 kmh 30.10 in1019.3 mb - 0.00 in0.0 mm 0.00 in0.0 mm
06:10 AM 31.5°F-0.3°C 25.4°F-3.7°C 78% Calm Calm -- 30.09 in1019.0 mb - 0.00 in0.0 mm 0.00 in0.0 mm
06:00 AM 31.2°F-0.4°C 25.4°F-3.7°C 79% Calm Calm -- 30.09 in1019.0 mb - 0.00 in0.0 mm 0.00 in0.0 mm
05:50 AM 30.5°F-0.8°C 25.1°F-3.8°C 80% Calm Calm 1.2 mph1.9 kmh 30.09 in1019.0 mb - 0.00 in0.0 mm 0.00 in0.0 mm
05:40 AM 29.7°F-1.3°C 24.6°F-4.1°C 81% Calm Calm -- 30.09 in1019.0 mb - 0.00 in0.0 mm 0.00 in0.0 mm
05:30 AM 29.7°F-1.3°C 24.3°F-4.3°C 80% Calm Calm -- 30.10 in1019.3 mb - 0.00 in0.0 mm 0.00 in0.0 mm
05:20 AM 30.0°F-1.1°C 24.6°F-4.1°C 80% Calm Calm 1.2 mph1.9 kmh 30.11 in1019.6 mb - 0.00 in0.0 mm 0.00 in0.0 mm
05:10 AM 30.4°F-0.9°C 24.7°F-4.1°C 79% Calm Calm -- 30.12 in1020.0 mb - 0.00 in0.0 mm 0.00 in0.0 mm
05:00 AM 30.9°F-0.6°C 24.5°F-4.2°C 77% Calm Calm -- 30.12 in1020.0 mb - 0.00 in0.0 mm 0.00 in0.0 mm
04:50 AM 31.1°F-0.5°C 24.7°F-4.1°C 77% Calm Calm -- 30.12 in1020.0 mb - 0.00 in0.0 mm 0.00 in0.0 mm
04:40 AM 31.1°F-0.5°C 24.7°F-4.1°C 77% Calm Calm 1.2 mph1.9 kmh 30.12 in1020.0 mb - 0.00 in0.0 mm 0.00 in0.0 mm
04:30 AM 30.8°F-0.7°C 24.4°F-4.2°C 77% Calm Calm 1.2 mph1.9 kmh 30.12 in1020.0 mb - 0.00 in0.0 mm 0.00 in0.0 mm
04:20 AM 30.6°F-0.8°C 24.3°F-4.3°C 77% Calm Calm 1.2 mph1.9 kmh 30.13 in1020.3 mb - 0.00 in0.0 mm 0.00 in0.0 mm
04:10 AM 30.6°F-0.8°C 23.9°F-4.5°C 76% Calm Calm 1.2 mph1.9 kmh 30.14 in1020.7 mb - 0.00 in0.0 mm 0.00 in0.0 mm
04:00 AM 30.7°F-0.7°C 23.7°F-4.6°C 75% Calm Calm -- 30.14 in1020.7 mb - 0.00 in0.0 mm 0.00 in0.0 mm
03:50 AM 31.0°F-0.6°C 23.7°F-4.6°C 74% Calm Calm -- 30.14 in1020.7 mb - 0.00 in0.0 mm 0.00 in0.0 mm
03:40 AM 31.5°F-0.3°C 23.5°F-4.7°C 72% Calm Calm 1.2 mph1.9 kmh 30.14 in1020.7 mb - 0.00 in0.0 mm 0.00 in0.0 mm
03:30 AM 31.6°F-0.2°C 23.3°F-4.8°C 71% Calm Calm -- 30.14 in1020.7 mb - 0.00 in0.0 mm 0.00 in0.0 mm
03:20 AM 31.8°F-0.1°C 23.1°F-4.9°C 70% Calm Calm -- 30.14 in1020.7 mb - 0.00 in0.0 mm 0.00 in0.0 mm
03:10 AM 32.0°F0.0°C 23.0°F-5.0°C 69% 1.2 mph NE1.9 kmh NE 2.3 mph3.7 kmh 30.16 in1021.3 mb - 0.00 in0.0 mm 0.00 in0.0 mm
03:00 AM 32.0°F0.0°C 23.0°F-5.0°C 69% Calm Calm 2.3 mph3.7 kmh 30.16 in1021.3 mb - 0.00 in0.0 mm 0.00 in0.0 mm
02:50 AM 32.0°F0.0°C 22.6°F-5.2°C 68% 2.3 mph ENE3.7 kmh ENE 4.6 mph7.4 kmh 30.16 in1021.3 mb - 0.00 in0.0 mm 0.00 in0.0 mm
02:40 AM 32.0°F0.0°C 22.6°F-5.2°C 68% 2.3 mph NE3.7 kmh NE 3.5 mph5.6 kmh 30.17 in1021.7 mb - 0.00 in0.0 mm 0.00 in0.0 mm
02:30 AM 32.0°F0.0°C 22.6°F-5.2°C 68% 2.3 mph NE3.7 kmh NE 3.5 mph5.6 kmh 30.17 in1021.7 mb - 0.00 in0.0 mm 0.00 in0.0 mm
02:20 AM 32.0°F0.0°C 22.6°F-5.2°C 68% 1.2 mph NE1.9 kmh NE 3.5 mph5.6 kmh 30.18 in1022.0 mb - 0.00 in0.0 mm 0.00 in0.0 mm
02:10 AM 32.0°F0.0°C 22.3°F-5.4°C 67% 2.3 mph NE3.7 kmh NE 3.5 mph5.6 kmh 30.18 in1022.0 mb - 0.00 in0.0 mm 0.00 in0.0 mm
02:00 AM 31.9°F-0.1°C 22.2°F-5.4°C 67% 2.3 mph NE3.7 kmh NE 3.5 mph5.6 kmh 30.18 in1022.0 mb - 0.00 in0.0 mm 0.00 in0.0 mm
01:50 AM 31.9°F-0.1°C 22.2°F-5.4°C 67% 3.5 mph NE5.6 kmh NE 3.5 mph5.6 kmh 30.19 in1022.4 mb - 0.00 in0.0 mm 0.00 in0.0 mm
01:40 AM 31.6°F-0.2°C 21.9°F-5.6°C 67% 3.5 mph NE5.6 kmh NE 5.8 mph9.3 kmh 30.19 in1022.4 mb - 0.00 in0.0 mm 0.00 in0.0 mm
01:30 AM 31.4°F-0.3°C 21.7°F-5.7°C 67% 2.3 mph ENE3.7 kmh ENE 3.5 mph5.6 kmh 30.20 in1022.7 mb - 0.00 in0.0 mm 0.00 in0.0 mm
01:20 AM 31.3°F-0.4°C 21.6°F-5.8°C 67% 2.3 mph NE3.7 kmh NE 3.5 mph5.6 kmh 30.20 in1022.7 mb - 0.00 in0.0 mm 0.00 in0.0 mm
01:10 AM 31.1°F-0.5°C 21.4°F-5.9°C 67% 1.2 mph NE1.9 kmh NE 3.5 mph5.6 kmh 30.21 in1023.0 mb - 0.00 in0.0 mm 0.00 in0.0 mm
01:00 AM 31.0°F-0.6°C 21.3°F-5.9°C 67% 1.2 mph NE1.9 kmh NE 3.5 mph5.6 kmh 30.21 in1023.0 mb - 0.00 in0.0 mm 0.00 in0.0 mm
12:50 AM 31.1°F-0.5°C 21.1°F-6.1°C 66% 3.5 mph ENE5.6 kmh ENE 3.5 mph5.6 kmh 30.21 in1023.0 mb - 0.00 in0.0 mm 0.00 in0.0 mm
12:40 AM 31.2°F-0.4°C 21.2°F-6.0°C 66% 3.5 mph NE5.6 kmh NE 3.5 mph5.6 kmh 30.22 in1023.4 mb - 0.00 in0.0 mm 0.00 in0.0 mm
12:30 AM 31.4°F-0.3°C 21.3°F-5.9°C 66% 2.3 mph NE3.7 kmh NE 4.6 mph7.4 kmh 30.23 in1023.7 mb - 0.00 in0.0 mm 0.00 in0.0 mm
12:20 AM 31.5°F-0.3°C 21.4°F-5.9°C 66% 3.5 mph NE5.6 kmh NE 8.1 mph13.0 kmh 30.23 in1023.7 mb - 0.00 in0.0 mm 0.00 in0.0 mm
12:10 AM 31.5°F-0.3°C 21.4°F-5.9°C 66% 2.3 mph ENE3.7 kmh ENE 3.5 mph5.6 kmh 30.23 in1023.7 mb - 0.00 in0.0 mm 0.00 in0.0 mm
12:00 AM 31.6°F-0.2°C 21.5°F-5.8°C 66% 3.5 mph ENE5.6 kmh ENE 3.5 mph5.6 kmh 30.23 in1023.7 mb - 0.00 in0.0 mm 0.00 in0.0 mm